Time;durP1;ratioP1;P1;durP2;ratioP2;P2;SDS_P1;SDS_P2;PMS_P1;PMS_P2;Temp;Humidity;BMP_temperature;BMP_pressure;BME280_temperature;BME280_humidity;BME280_pressure;Samples;Min_cycle;Max_cycle;Signal;HPM_P1;HPM_P2
2021/09/25 00:00:59;;;;;;;7.25;3.28;;;;;;;;;;5041908;28;20375;-68
2021/09/25 00:03:24;;;;;;;7.33;2.70;;;;;;;;;;5041886;28;20151;-69
2021/09/25 00:05:49;;;;;;;12.50;2.88;;;;;;;;;;5038316;28;20278;-69
2021/09/25 00:08:15;;;;;;;5.27;2.20;;;;;;;;;;5048074;28;20017;-69
2021/09/25 00:10:41;;;;;;;3.95;2.38;;;;;;;;;;5050337;28;20717;-69
2021/09/25 00:13:06;;;;;;;4.32;2.22;;;;;;;;;;5041031;28;20409;-69
2021/09/25 00:15:32;;;;;;;4.25;2.33;;;;;;;;;;5044589;28;20384;-68
2021/09/25 00:17:57;;;;;;;4.32;2.05;;;;;;;;;;5042586;28;20025;-69
2021/09/25 00:20:23;;;;;;;3.95;2.13;;;;;;;;;;5045071;28;20017;-69
2021/09/25 00:22:49;;;;;;;6.45;2.78;;;;;;;;;;5042989;28;20103;-69
2021/09/25 00:25:14;;;;;;;3.42;2.50;;;;;;;;;;5042532;28;20082;-69
2021/09/25 00:27:39;;;;;;;4.82;2.60;;;;;;;;;;5043312;28;20021;-69
2021/09/25 00:30:06;;;;;;;4.32;2.65;;;;;;;;;;5041209;28;20025;-68
2021/09/25 00:32:31;;;;;;;3.65;2.35;;;;;;;;;;5044983;28;20028;-68
2021/09/25 00:34:56;;;;;;;7.30;2.60;;;;;;;;;;5049746;28;20032;-69
2021/09/25 00:37:21;;;;;;;3.50;2.63;;;;;;;;;;5044149;28;20033;-69
2021/09/25 00:39:47;;;;;;;5.17;2.73;;;;;;;;;;5042498;28;20033;-69
2021/09/25 00:42:12;;;;;;;8.77;3.22;;;;;;;;;;5041699;28;20286;-69
2021/09/25 00:44:37;;;;;;;4.88;2.80;;;;;;;;;;5041323;28;20032;-69
2021/09/25 00:47:02;;;;;;;5.30;2.77;;;;;;;;;;5042861;28;20028;-69
2021/09/25 00:49:27;;;;;;;4.53;2.70;;;;;;;;;;5040919;28;20275;-69
2021/09/25 00:51:53;;;;;;;6.63;2.85;;;;;;;;;;5041176;28;20017;-69
2021/09/25 00:54:18;;;;;;;7.10;3.40;;;;;;;;;;5042080;28;20024;-69
2021/09/25 00:56:44;;;;;;;3.85;2.40;;;;;;;;;;5045730;28;20341;-69
2021/09/25 00:59:11;;;;;;;8.90;2.70;;;;;;;;;;5048256;28;20036;-69
2021/09/25 01:01:36;;;;;;;7.10;2.78;;;;;;;;;;5043967;28;20079;-69
2021/09/25 01:04:01;;;;;;;11.15;3.40;;;;;;;;;;5044901;28;20020;-69
2021/09/25 01:06:27;;;;;;;5.05;2.50;;;;;;;;;;5046055;28;20051;-69
2021/09/25 01:08:52;;;;;;;4.70;2.90;;;;;;;;;;5045804;28;20062;-69
2021/09/25 01:11:17;;;;;;;5.80;2.77;;;;;;;;;;5047476;28;20272;-69
2021/09/25 01:13:42;;;;;;;8.07;3.25;;;;;;;;;;5044712;28;20778;-69
2021/09/25 01:16:07;;;;;;;6.03;2.80;;;;;;;;;;5042298;28;20060;-69
2021/09/25 01:18:33;;;;;;;10.40;2.97;;;;;;;;;;5044094;28;20268;-69
2021/09/25 01:21:05;;;;;;;3.65;2.70;;;;;;;;;;5045932;28;20043;-68
2021/09/25 01:23:30;;;;;;;3.95;2.65;;;;;;;;;;5046950;28;20029;-69
2021/09/25 01:25:56;;;;;;;6.30;2.75;;;;;;;;;;5044710;28;20501;-69
2021/09/25 01:28:21;;;;;;;5.07;2.67;;;;;;;;;;5045001;28;20017;-69
2021/09/25 01:30:46;;;;;;;6.30;3.07;;;;;;;;;;5046728;28;20377;-69
2021/09/25 01:33:11;;;;;;;5.63;2.97;;;;;;;;;;5051962;28;20298;-69
2021/09/25 01:35:36;;;;;;;6.05;3.28;;;;;;;;;;5040171;28;20021;-69
2021/09/25 01:38:02;;;;;;;5.37;2.97;;;;;;;;;;5047293;28;20397;-69
2021/09/25 01:40:27;;;;;;;8.02;3.25;;;;;;;;;;5043866;28;20275;-69
2021/09/25 01:42:53;;;;;;;6.68;3.30;;;;;;;;;;5043868;28;20098;-69
2021/09/25 01:45:18;;;;;;;6.78;3.45;;;;;;;;;;5044527;28;20032;-69
2021/09/25 01:47:43;;;;;;;8.15;3.33;;;;;;;;;;5044231;28;20029;-68
2021/09/25 01:50:09;;;;;;;5.15;2.95;;;;;;;;;;5045017;28;20667;-69
2021/09/25 01:52:35;;;;;;;5.30;3.10;;;;;;;;;;5043028;28;20017;-68
2021/09/25 01:55:00;;;;;;;4.28;3.00;;;;;;;;;;5044208;28;20469;-69
2021/09/25 01:57:25;;;;;;;4.30;2.88;;;;;;;;;;5050109;28;20128;-69
2021/09/25 01:59:51;;;;;;;5.03;2.72;;;;;;;;;;5043853;28;20049;-69
2021/09/25 02:02:17;;;;;;;8.30;3.00;;;;;;;;;;5045679;28;20095;-68
2021/09/25 02:04:48;;;;;;;4.88;3.00;;;;;;;;;;5044718;28;20032;-69
2021/09/25 02:07:15;;;;;;;4.40;2.65;;;;;;;;;;5043235;28;20461;-68
2021/09/25 02:09:40;;;;;;;11.73;3.78;;;;;;;;;;5044358;28;20030;-68
2021/09/25 02:12:05;;;;;;;6.33;3.03;;;;;;;;;;5042606;28;20028;-68
2021/09/25 02:14:31;;;;;;;4.60;2.88;;;;;;;;;;5044276;28;20394;-68
2021/09/25 02:16:56;;;;;;;5.18;3.20;;;;;;;;;;5046221;28;20033;-68
2021/09/25 02:19:22;;;;;;;4.50;2.60;;;;;;;;;;5043672;28;20053;-68
2021/09/25 02:21:47;;;;;;;7.57;3.07;;;;;;;;;;5050352;28;20028;-68
2021/09/25 02:24:13;;;;;;;5.28;3.05;;;;;;;;;;5045826;28;20264;-68
2021/09/25 02:26:38;;;;;;;5.35;3.30;;;;;;;;;;5042660;28;20070;-68
2021/09/25 02:29:04;;;;;;;6.88;3.28;;;;;;;;;;5044134;28;20120;-69
2021/09/25 02:31:29;;;;;;;5.88;3.20;;;;;;;;;;5043988;28;20025;-68
2021/09/25 02:33:54;;;;;;;6.60;3.38;;;;;;;;;;5042237;28;20024;-68
2021/09/25 02:36:19;;;;;;;6.03;3.22;;;;;;;;;;5044814;28;20024;-68
2021/09/25 02:38:45;;;;;;;4.77;3.10;;;;;;;;;;5043884;28;20107;-68
2021/09/25 02:41:10;;;;;;;5.10;3.30;;;;;;;;;;5043418;28;20272;-68
2021/09/25 02:43:35;;;;;;;7.63;3.38;;;;;;;;;;5042117;28;20044;-69
2021/09/25 02:46:01;;;;;;;4.63;2.60;;;;;;;;;;5040198;28;20084;-68
2021/09/25 02:48:26;;;;;;;6.85;2.95;;;;;;;;;;5040789;28;20276;-68
2021/09/25 02:50:51;;;;;;;5.17;2.57;;;;;;;;;;5043260;28;20020;-69
2021/09/25 02:53:16;;;;;;;7.18;3.47;;;;;;;;;;5043211;28;20352;-68
2021/09/25 02:55:42;;;;;;;9.95;3.28;;;;;;;;;;5044305;28;20211;-68
2021/09/25 02:58:07;;;;;;;5.30;3.47;;;;;;;;;;5045485;28;20104;-68
2021/09/25 03:00:32;;;;;;;10.70;4.00;;;;;;;;;;5043755;28;20290;-68
2021/09/25 03:02:58;;;;;;;5.80;3.67;;;;;;;;;;5042657;28;20025;-68
2021/09/25 03:05:23;;;;;;;5.13;3.40;;;;;;;;;;5040920;28;20272;-69
2021/09/25 03:07:48;;;;;;;5.78;3.42;;;;;;;;;;5042685;28;20480;-68
2021/09/25 03:10:13;;;;;;;4.72;2.83;;;;;;;;;;5042717;28;20024;-69
2021/09/25 03:12:38;;;;;;;6.70;2.90;;;;;;;;;;5041507;28;20013;-68
2021/09/25 03:15:04;;;;;;;6.50;3.17;;;;;;;;;;5039906;28;20021;-68
2021/09/25 03:17:30;;;;;;;7.00;2.85;;;;;;;;;;5040814;28;20718;-68
2021/09/25 03:19:55;;;;;;;4.95;2.97;;;;;;;;;;5041627;28;20032;-69
2021/09/25 03:22:20;;;;;;;9.23;3.53;;;;;;;;;;5041925;28;20494;-68
2021/09/25 03:24:45;;;;;;;5.55;3.08;;;;;;;;;;5043678;28;20019;-68
2021/09/25 03:27:11;;;;;;;7.65;3.13;;;;;;;;;;5042894;28;20473;-68
2021/09/25 03:29:36;;;;;;;5.18;2.75;;;;;;;;;;5045655;28;20013;-68
2021/09/25 03:32:02;;;;;;;6.43;3.38;;;;;;;;;;5041809;28;20040;-68
2021/09/25 03:34:27;;;;;;;5.78;2.75;;;;;;;;;;5042037;28;20021;-68
2021/09/25 03:36:53;;;;;;;7.20;3.03;;;;;;;;;;5044156;28;20013;-68
2021/09/25 03:39:18;;;;;;;9.82;3.75;;;;;;;;;;5043411;28;22095;-68
2021/09/25 03:41:43;;;;;;;9.47;3.80;;;;;;;;;;5044882;28;20021;-68
2021/09/25 03:44:09;;;;;;;8.02;3.58;;;;;;;;;;5043468;28;20342;-68
2021/09/25 03:46:34;;;;;;;6.20;3.17;;;;;;;;;;5044067;28;20469;-68
2021/09/25 03:48:59;;;;;;;8.23;3.25;;;;;;;;;;5041911;28;20077;-68
2021/09/25 03:51:24;;;;;;;8.47;3.20;;;;;;;;;;5044858;28;20025;-68
2021/09/25 03:53:49;;;;;;;5.27;3.10;;;;;;;;;;5043833;28;20271;-68
2021/09/25 03:56:14;;;;;;;8.15;3.65;;;;;;;;;;5042447;28;20636;-68
2021/09/25 03:58:40;;;;;;;5.90;3.75;;;;;;;;;;5042052;28;20029;-68
2021/09/25 04:01:06;;;;;;;8.65;3.35;;;;;;;;;;5040596;28;20021;-68
2021/09/25 04:03:31;;;;;;;9.30;4.05;;;;;;;;;;5041790;28;20090;-68
2021/09/25 04:05:58;;;;;;;8.13;3.73;;;;;;;;;;5044050;28;20029;-68
2021/09/25 04:08:23;;;;;;;6.15;3.55;;;;;;;;;;5044042;28;20418;-68
2021/09/25 04:10:49;;;;;;;8.77;3.40;;;;;;;;;;5041990;28;20100;-68
2021/09/25 04:13:14;;;;;;;4.67;2.97;;;;;;;;;;5041576;28;20029;-68
2021/09/25 04:15:39;;;;;;;5.37;3.17;;;;;;;;;;5041500;28;20271;-68
2021/09/25 04:18:04;;;;;;;5.82;3.33;;;;;;;;;;5042058;28;20310;-68
2021/09/25 04:20:30;;;;;;;5.57;3.30;;;;;;;;;;5041107;28;20104;-68
2021/09/25 04:22:55;;;;;;;7.70;4.18;;;;;;;;;;5044722;28;20031;-68
2021/09/25 04:25:20;;;;;;;6.25;3.50;;;;;;;;;;5047156;28;20029;-68
2021/09/25 04:27:49;;;;;;;10.30;4.05;;;;;;;;;;5049331;28;20021;-69
2021/09/25 04:30:15;;;;;;;6.07;3.90;;;;;;;;;;5042009;28;20516;-69
2021/09/25 04:32:40;;;;;;;6.72;3.78;;;;;;;;;;5044138;28;20079;-68
2021/09/25 04:35:05;;;;;;;6.18;3.50;;;;;;;;;;5044784;28;20036;-68
2021/09/25 04:37:31;;;;;;;6.90;3.75;;;;;;;;;;5045919;28;20161;-68
2021/09/25 04:39:56;;;;;;;6.27;3.57;;;;;;;;;;5047578;28;20024;-68
2021/09/25 04:42:21;;;;;;;9.93;3.87;;;;;;;;;;5045926;28;20282;-68
2021/09/25 04:44:46;;;;;;;5.07;3.45;;;;;;;;;;5046939;28;20267;-68
2021/09/25 04:47:11;;;;;;;7.23;4.23;;;;;;;;;;5046724;28;20569;-68
2021/09/25 04:49:37;;;;;;;8.70;3.85;;;;;;;;;;5044136;28;20275;-68
2021/09/25 04:52:02;;;;;;;12.48;4.18;;;;;;;;;;5047358;28;20529;-68
2021/09/25 04:54:27;;;;;;;8.20;4.28;;;;;;;;;;5053052;28;20406;-69
2021/09/25 04:56:52;;;;;;;8.93;4.07;;;;;;;;;;5048422;28;20029;-68
2021/09/25 04:59:17;;;;;;;7.10;3.83;;;;;;;;;;5045979;28;20275;-68
2021/09/25 05:01:43;;;;;;;8.17;4.43;;;;;;;;;;5043465;28;20779;-69
2021/09/25 05:04:10;;;;;;;9.60;4.47;;;;;;;;;;5045273;28;20272;-69
2021/09/25 05:06:35;;;;;;;7.55;4.32;;;;;;;;;;5044970;28;20354;-69
2021/09/25 05:09:00;;;;;;;9.02;4.30;;;;;;;;;;5045104;28;20436;-69
2021/09/25 05:11:25;;;;;;;13.32;3.78;;;;;;;;;;5042600;28;20029;-68
2021/09/25 05:13:51;;;;;;;10.75;4.47;;;;;;;;;;5044207;28;20017;-69
2021/09/25 05:16:16;;;;;;;9.35;4.57;;;;;;;;;;5048190;28;20052;-69
2021/09/25 05:18:41;;;;;;;9.68;4.60;;;;;;;;;;5051675;28;20024;-69
2021/09/25 05:21:07;;;;;;;8.27;4.15;;;;;;;;;;5050135;28;20025;-68
2021/09/25 05:23:32;;;;;;;6.32;4.07;;;;;;;;;;5043798;28;20098;-68
2021/09/25 05:25:57;;;;;;;8.18;4.43;;;;;;;;;;5041192;28;20025;-68
2021/09/25 05:28:23;;;;;;;6.32;4.25;;;;;;;;;;5045141;28;20512;-68
2021/09/25 05:30:48;;;;;;;11.13;4.78;;;;;;;;;;5045218;28;20096;-68
2021/09/25 05:33:13;;;;;;;12.52;4.80;;;;;;;;;;5044620;28;20025;-68
2021/09/25 05:35:38;;;;;;;7.63;4.07;;;;;;;;;;5044236;28;20039;-69
2021/09/25 05:38:03;;;;;;;5.95;4.20;;;;;;;;;;5044878;28;20021;-69
2021/09/25 05:40:29;;;;;;;7.68;4.50;;;;;;;;;;5046423;28;20443;-68
2021/09/25 05:43:03;;;;;;;7.90;4.45;;;;;;;;;;5049861;23;20104;-87
2021/09/25 05:45:29;;;;;;;9.68;4.80;;;;;;;;;;5056818;28;20060;-87
2021/09/25 05:47:54;;;;;;;9.05;4.85;;;;;;;;;;5056164;28;20049;-87
2021/09/25 05:50:31;;;;;;;9.27;4.63;;;;;;;;;;5037728;28;20021;-86
2021/09/25 05:52:58;;;;;;;11.25;4.95;;;;;;;;;;5039752;28;20066;-86
2021/09/25 05:55:27;;;;;;;5.90;3.88;;;;;;;;;;5043229;28;20025;-87
2021/09/25 05:57:56;;;;;;;7.97;4.93;;;;;;;;;;5041962;28;20029;-87
2021/09/25 06:00:21;;;;;;;6.83;4.73;;;;;;;;;;5042543;28;20035;-87
2021/09/25 06:02:49;;;;;;;9.23;4.68;;;;;;;;;;5044275;28;20021;-87
2021/09/25 06:07:42;;;;;;;11.00;4.38;;;;;;;;;;5079635;28;20082;-65
2021/09/25 06:10:07;;;;;;;6.78;4.22;;;;;;;;;;5085515;28;20055;-64
2021/09/25 06:12:32;;;;;;;7.65;4.40;;;;;;;;;;5084238;28;20107;-67
2021/09/25 06:14:59;;;;;;;8.47;4.53;;;;;;;;;;5083877;28;20403;-65
2021/09/25 06:17:24;;;;;;;8.95;5.38;;;;;;;;;;5083374;28;20354;-64
2021/09/25 06:19:49;;;;;;;6.85;4.85;;;;;;;;;;5085378;28;20388;-66
2021/09/25 06:22:15;;;;;;;9.95;5.05;;;;;;;;;;5082394;28;20035;-66
2021/09/25 06:24:40;;;;;;;7.87;4.30;;;;;;;;;;5086441;28;20103;-66
2021/09/25 06:27:05;;;;;;;7.78;4.32;;;;;;;;;;5088751;28;20343;-68
2021/09/25 06:29:30;;;;;;;9.48;5.03;;;;;;;;;;5083105;28;20030;-65
2021/09/25 06:31:56;;;;;;;8.13;3.92;;;;;;;;;;5085787;28;20016;-66
2021/09/25 06:34:22;;;;;;;10.57;4.05;;;;;;;;;;5085352;28;20027;-65
2021/09/25 06:36:48;;;;;;;7.70;4.47;;;;;;;;;;5082624;28;20481;-66
2021/09/25 06:39:13;;;;;;;7.32;4.55;;;;;;;;;;5082615;28;20058;-65
2021/09/25 06:41:38;;;;;;;6.57;4.40;;;;;;;;;;5083998;28;20032;-65
2021/09/25 06:44:04;;;;;;;6.40;4.10;;;;;;;;;;5081200;28;20070;-65
2021/09/25 06:46:29;;;;;;;6.88;4.10;;;;;;;;;;5082210;28;20044;-66
2021/09/25 06:48:54;;;;;;;7.32;3.58;;;;;;;;;;5082592;28;20091;-65
2021/09/25 06:51:20;;;;;;;21.02;4.07;;;;;;;;;;5082155;28;20020;-66
2021/09/25 06:53:46;;;;;;;5.90;2.53;;;;;;;;;;5081586;28;20418;-66
2021/09/25 06:56:11;;;;;;;12.80;3.70;;;;;;;;;;5082783;28;20402;-66
2021/09/25 06:58:36;;;;;;;7.68;3.67;;;;;;;;;;5082566;28;20031;-66
2021/09/25 07:01:01;;;;;;;9.13;4.80;;;;;;;;;;5082548;28;20016;-66
2021/09/25 07:03:26;;;;;;;3.13;1.97;;;;;;;;;;5081557;28;20027;-68
2021/09/25 07:05:51;;;;;;;9.77;4.17;;;;;;;;;;5084164;28;20844;-69
2021/09/25 07:08:17;;;;;;;10.13;4.73;;;;;;;;;;5082120;28;20278;-66
2021/09/25 07:10:42;;;;;;;10.38;3.95;;;;;;;;;;5084980;28;20274;-64
2021/09/25 07:13:07;;;;;;;6.57;4.47;;;;;;;;;;5082173;28;20035;-65
2021/09/25 07:15:32;;;;;;;6.90;3.60;;;;;;;;;;5083470;28;20757;-65
2021/09/25 07:17:58;;;;;;;11.13;4.80;;;;;;;;;;5082232;28;20154;-67
2021/09/25 07:20:23;;;;;;;6.68;3.95;;;;;;;;;;5085013;28;20031;-64
2021/09/25 07:22:51;;;;;;;7.28;3.53;;;;;;;;;;5084503;28;20035;-67
2021/09/25 07:25:16;;;;;;;8.90;4.50;;;;;;;;;;5081531;28;20027;-66
2021/09/25 07:27:41;;;;;;;6.97;4.22;;;;;;;;;;5084896;28;20021;-66
2021/09/25 07:30:07;;;;;;;8.90;4.10;;;;;;;;;;5081451;28;20023;-67
2021/09/25 07:32:32;;;;;;;10.43;4.82;;;;;;;;;;5082355;28;20270;-67
2021/09/25 07:34:57;;;;;;;5.13;3.25;;;;;;;;;;5088230;28;20032;-68
2021/09/25 07:37:22;;;;;;;5.22;3.30;;;;;;;;;;5087302;28;20073;-67
2021/09/25 07:39:48;;;;;;;6.37;3.67;;;;;;;;;;5090247;28;20472;-65
2021/09/25 07:42:13;;;;;;;7.13;3.72;;;;;;;;;;5089427;28;20281;-67
2021/09/25 07:44:38;;;;;;;6.70;4.10;;;;;;;;;;5089541;28;20383;-65
2021/09/25 07:47:03;;;;;;;9.38;3.97;;;;;;;;;;5090008;28;20464;-64
2021/09/25 07:49:29;;;;;;;7.05;3.90;;;;;;;;;;5089822;28;20020;-65
2021/09/25 07:51:54;;;;;;;11.40;3.35;;;;;;;;;;5089972;28;20054;-65
2021/09/25 07:54:19;;;;;;;5.95;3.38;;;;;;;;;;5089866;28;20114;-65
2021/09/25 07:56:44;;;;;;;5.00;3.13;;;;;;;;;;5089876;28;20140;-66
2021/09/25 07:59:10;;;;;;;6.07;3.47;;;;;;;;;;5090084;28;20573;-65
2021/09/25 08:01:35;;;;;;;4.85;3.40;;;;;;;;;;5089940;28;20090;-66
2021/09/25 08:04:00;;;;;;;5.00;2.90;;;;;;;;;;5090158;28;20059;-68
2021/09/25 08:06:25;;;;;;;3.30;2.33;;;;;;;;;;5089121;28;20031;-66
2021/09/25 08:08:51;;;;;;;6.97;3.20;;;;;;;;;;5087159;28;20384;-66
2021/09/25 08:11:16;;;;;;;4.97;2.80;;;;;;;;;;5091741;28;20107;-67
2021/09/25 08:13:41;;;;;;;5.43;3.40;;;;;;;;;;5088136;28;20262;-67
2021/09/25 08:16:06;;;;;;;7.07;3.65;;;;;;;;;;5088348;28;20266;-65
2021/09/25 08:18:32;;;;;;;5.93;3.63;;;;;;;;;;5092041;28;20023;-65
2021/09/25 08:20:57;;;;;;;5.05;3.08;;;;;;;;;;5092330;28;20301;-66
2021/09/25 08:23:23;;;;;;;4.90;3.38;;;;;;;;;;5091207;28;20028;-66
2021/09/25 08:25:48;;;;;;;4.80;2.97;;;;;;;;;;5091037;28;20418;-66
2021/09/25 08:28:14;;;;;;;6.28;2.58;;;;;;;;;;5091634;28;20527;-67
2021/09/25 08:30:39;;;;;;;5.13;3.00;;;;;;;;;;5088319;28;20020;-66
2021/09/25 08:33:04;;;;;;;3.92;2.65;;;;;;;;;;5093186;28;20254;-67
2021/09/25 08:35:30;;;;;;;6.70;3.30;;;;;;;;;;5093520;28;20108;-66
2021/09/25 08:37:56;;;;;;;3.00;2.70;;;;;;;;;;5090168;28;20049;-67
2021/09/25 08:40:22;;;;;;;5.43;2.80;;;;;;;;;;5093523;28;20103;-67
2021/09/25 08:42:48;;;;;;;4.05;2.75;;;;;;;;;;5091053;28;20024;-67
2021/09/25 08:45:13;;;;;;;4.72;2.63;;;;;;;;;;5093295;28;20031;-67
2021/09/25 08:47:38;;;;;;;5.55;2.95;;;;;;;;;;5093146;28;20028;-65
2021/09/25 08:50:05;;;;;;;4.83;3.20;;;;;;;;;;5093343;28;20016;-68
2021/09/25 08:52:31;;;;;;;5.88;3.40;;;;;;;;;;5092622;28;20626;-66
2021/09/25 08:54:56;;;;;;;5.55;2.40;;;;;;;;;;5092386;28;20016;-67
2021/09/25 08:57:21;;;;;;;4.27;2.90;;;;;;;;;;5092761;28;20053;-65
2021/09/25 08:59:46;;;;;;;6.67;3.53;;;;;;;;;;5091591;28;20036;-66
2021/09/25 09:02:17;;;;;;;5.28;2.92;;;;;;;;;;5092471;28;20024;-65
2021/09/25 09:04:53;;;;;;;5.43;3.28;;;;;;;;;;5092073;28;20028;-66
2021/09/25 09:07:21;;;;;;;5.32;2.88;;;;;;;;;;5092394;28;20472;-66
2021/09/25 09:09:46;;;;;;;5.72;2.72;;;;;;;;;;5092991;28;20434;-66
2021/09/25 09:12:12;;;;;;;6.18;2.90;;;;;;;;;;5085025;28;20017;-66
2021/09/25 09:14:41;;;;;;;5.70;3.45;;;;;;;;;;5080239;28;20028;-66
2021/09/25 09:17:07;;;;;;;3.70;2.45;;;;;;;;;;5091125;28;20038;-66
2021/09/25 09:19:36;;;;;;;5.60;3.20;;;;;;;;;;5089528;28;20032;-66
2021/09/25 09:22:05;;;;;;;5.50;3.60;;;;;;;;;;5090103;28;20262;-65
2021/09/25 09:24:40;;;;;;;7.10;3.40;;;;;;;;;;5092822;28;20046;-64
2021/09/25 09:27:16;;;;;;;3.17;1.90;;;;;;;;;;5092664;28;20078;-65
2021/09/25 09:29:42;;;;;;;7.10;3.35;;;;;;;;;;5092661;28;20044;-66
2021/09/25 09:32:08;;;;;;;4.57;2.88;;;;;;;;;;5092467;28;20068;-64
2021/09/25 09:34:39;;;;;;;5.60;3.35;;;;;;;;;;5091921;28;20012;-64
2021/09/25 09:37:11;;;;;;;4.25;2.65;;;;;;;;;;5092544;28;20112;-64
2021/09/25 09:39:36;;;;;;;7.22;3.35;;;;;;;;;;5091783;28;20024;-66
2021/09/25 09:42:02;;;;;;;8.13;2.80;;;;;;;;;;5089173;28;20349;-65
2021/09/25 09:44:29;;;;;;;7.43;3.33;;;;;;;;;;5092476;28;20032;-66
2021/09/25 09:46:55;;;;;;;6.80;3.05;;;;;;;;;;5092316;28;20282;-65
2021/09/25 09:49:25;;;;;;;9.75;3.47;;;;;;;;;;5089034;28;20562;-66
2021/09/25 09:52:16;;;;;;;5.72;3.38;;;;;;;;;;5091884;28;20077;-66
2021/09/25 09:54:45;;;;;;;4.95;3.17;;;;;;;;;;5088552;28;20035;-67
2021/09/25 09:57:13;;;;;;;6.50;3.67;;;;;;;;;;5091445;28;20031;-66
2021/09/25 09:59:39;;;;;;;6.57;3.85;;;;;;;;;;5090975;28;20550;-66
2021/09/25 10:02:05;;;;;;;10.20;3.45;;;;;;;;;;5092021;28;20396;-66
2021/09/25 10:04:30;;;;;;;9.93;4.10;;;;;;;;;;5091803;28;20270;-67
2021/09/25 10:06:55;;;;;;;4.03;2.80;;;;;;;;;;5083797;28;20049;-63
2021/09/25 10:09:22;;;;;;;7.15;4.00;;;;;;;;;;5089129;28;20020;-67
2021/09/25 10:11:50;;;;;;;8.18;3.55;;;;;;;;;;5071970;28;20126;-67
2021/09/25 10:14:16;;;;;;;6.35;3.30;;;;;;;;;;5072050;28;20107;-65
2021/09/25 10:16:42;;;;;;;6.32;3.42;;;;;;;;;;5083580;28;20028;-65
2021/09/25 10:19:07;;;;;;;9.75;3.50;;;;;;;;;;5092291;28;20479;-66
2021/09/25 10:21:34;;;;;;;6.00;3.67;;;;;;;;;;5092292;28;20056;-65
2021/09/25 10:24:07;;;;;;;7.38;3.53;;;;;;;;;;5091728;28;20254;-67
2021/09/25 10:26:32;;;;;;;6.03;3.28;;;;;;;;;;5091883;28;20020;-66
2021/09/25 10:29:02;;;;;;;4.93;2.42;;;;;;;;;;5091831;28;20077;-65
2021/09/25 10:31:27;;;;;;;6.25;3.05;;;;;;;;;;5090226;28;20020;-67
2021/09/25 10:34:13;;;;;;;9.98;3.22;;;;;;;;;;5091654;28;20073;-66
2021/09/25 10:36:39;;;;;;;4.18;2.92;;;;;;;;;;5091556;28;20077;-67
2021/09/25 10:39:15;;;;;;;5.45;2.72;;;;;;;;;;5091707;28;20027;-68
2021/09/25 10:41:44;;;;;;;7.30;3.50;;;;;;;;;;5090885;28;20131;-68
2021/09/25 10:44:26;;;;;;;7.40;2.90;;;;;;;;;;5091629;28;20028;-68
2021/09/25 10:46:51;;;;;;;5.45;2.85;;;;;;;;;;5091794;28;20020;-68
2021/09/25 10:49:16;;;;;;;4.30;2.83;;;;;;;;;;5091672;28;20380;-67
2021/09/25 10:51:42;;;;;;;4.00;2.63;;;;;;;;;;5091207;28;20016;-65
2021/09/25 10:54:12;;;;;;;7.40;2.87;;;;;;;;;;5091193;28;20460;-66
2021/09/25 10:56:37;;;;;;;;;;;;;;;;;;5091544;28;20031;-66
2021/09/25 10:59:06;;;;;;;9.48;3.38;;;;;;;;;;5091798;28;19904;-65
2021/09/25 11:01:33;;;;;;;5.85;3.05;;;;;;;;;;5091042;28;20034;-66
2021/09/25 11:04:00;;;;;;;5.53;3.17;;;;;;;;;;5091149;28;20476;-65
2021/09/25 11:06:27;;;;;;;6.45;2.60;;;;;;;;;;5090127;28;20240;-66
2021/09/25 11:08:58;;;;;;;6.15;2.97;;;;;;;;;;5091713;28;20070;-66
2021/09/25 11:11:42;;;;;;;4.13;2.63;;;;;;;;;;5090407;28;20096;-67
2021/09/25 11:14:33;;;;;;;3.67;2.03;;;;;;;;;;5090121;28;20016;-66
2021/09/25 11:17:00;;;;;;;3.70;2.90;;;;;;;;;;5089492;28;20032;-66
2021/09/25 11:19:25;;;;;;;6.30;2.05;;;;;;;;;;5089760;28;20043;-66
2021/09/25 11:22:11;;;;;;;6.03;3.10;;;;;;;;;;5090681;28;20055;-66
2021/09/25 11:24:41;;;;;;;5.18;2.97;;;;;;;;;;5090480;28;20422;-66
2021/09/25 11:27:08;;;;;;;3.63;2.00;;;;;;;;;;5090046;28;20042;-65
2021/09/25 11:29:34;;;;;;;4.78;2.67;;;;;;;;;;5091025;28;20408;-64
2021/09/25 11:32:07;;;;;;;4.57;2.40;;;;;;;;;;5090500;28;20016;-64
2021/09/25 11:34:33;;;;;;;4.65;2.70;;;;;;;;;;5090968;28;20027;-66
2021/09/25 11:36:59;;;;;;;4.20;2.10;;;;;;;;;;5090396;28;20095;-65
2021/09/25 11:39:41;;;;;;;3.97;2.45;;;;;;;;;;5088815;28;20042;-65
2021/09/25 11:42:07;;;;;;;4.57;2.90;;;;;;;;;;5090065;28;20023;-66
2021/09/25 11:44:50;;;;;;;4.03;2.33;;;;;;;;;;5090319;28;20027;-65
2021/09/25 11:47:22;;;;;;;7.85;3.03;;;;;;;;;;5090072;28;20032;-64
2021/09/25 11:49:48;;;;;;;4.22;2.78;;;;;;;;;;5089471;28;20024;-65
2021/09/25 11:52:13;;;;;;;4.90;2.15;;;;;;;;;;5088611;28;20016;-65
2021/09/25 11:54:39;;;;;;;3.38;2.03;;;;;;;;;;5089767;28;20317;-65
2021/09/25 11:57:11;;;;;;;3.92;2.17;;;;;;;;;;5089124;28;20106;-65
2021/09/25 11:59:36;;;;;;;5.15;2.60;;;;;;;;;;5089377;28;20020;-65
2021/09/25 12:02:02;;;;;;;4.00;2.53;;;;;;;;;;5088774;28;20020;-68
2021/09/25 12:04:36;;;;;;;6.72;2.33;;;;;;;;;;5089091;28;20726;-66
2021/09/25 12:07:01;;;;;;;4.93;2.30;;;;;;;;;;5085272;28;20024;-66
2021/09/25 12:09:43;;;;;;;4.83;2.23;;;;;;;;;;5086769;28;20016;-66
2021/09/25 12:12:08;;;;;;;4.18;2.60;;;;;;;;;;5088402;28;20273;-66
2021/09/25 12:14:40;;;;;;;5.25;2.15;;;;;;;;;;5089417;28;20377;-67
2021/09/25 12:17:05;;;;;;;8.20;2.72;;;;;;;;;;5089402;28;20472;-67
2021/09/25 12:19:30;;;;;;;7.00;2.33;;;;;;;;;;5089017;28;20068;-67
2021/09/25 12:21:55;;;;;;;6.90;2.73;;;;;;;;;;5089609;28;20376;-67
2021/09/25 12:24:21;;;;;;;5.20;2.70;;;;;;;;;;5089598;28;20274;-67
2021/09/25 12:26:48;;;;;;;4.72;2.63;;;;;;;;;;5084055;28;20275;-66
2021/09/25 12:29:16;;;;;;;5.15;2.30;;;;;;;;;;5071631;28;20013;-67
2021/09/25 12:31:41;;;;;;;4.70;2.42;;;;;;;;;;5086044;28;20145;-67
2021/09/25 12:34:14;;;;;;;10.67;2.83;;;;;;;;;;5081636;28;20091;-66
2021/09/25 12:36:40;;;;;;;4.80;2.70;;;;;;;;;;5088920;28;20263;-65
2021/09/25 12:39:10;;;;;;;4.47;2.13;;;;;;;;;;5088030;28;20043;-65
2021/09/25 12:41:36;;;;;;;3.60;2.40;;;;;;;;;;5087076;28;20019;-65
2021/09/25 12:44:03;;;;;;;4.60;2.45;;;;;;;;;;5088870;28;20028;-65
2021/09/25 12:46:29;;;;;;;4.80;2.80;;;;;;;;;;5088546;28;20024;-67
2021/09/25 12:48:56;;;;;;;10.07;3.25;;;;;;;;;;5087879;28;20078;-64
2021/09/25 12:51:25;;;;;;;5.50;2.20;;;;;;;;;;5087294;28;20465;-68
2021/09/25 12:53:51;;;;;;;5.28;2.47;;;;;;;;;;5089338;28;20020;-68
2021/09/25 12:56:18;;;;;;;4.18;2.20;;;;;;;;;;5093022;28;20224;-69
2021/09/25 12:58:49;;;;;;;4.93;2.13;;;;;;;;;;5093764;28;20012;-67
2021/09/25 13:01:23;;;;;;;4.55;2.17;;;;;;;;;;5093674;28;20414;-66
2021/09/25 13:03:48;;;;;;;3.88;2.25;;;;;;;;;;5092091;28;20008;-67
2021/09/25 13:06:14;;;;;;;3.63;1.93;;;;;;;;;;5092433;28;20020;-67
2021/09/25 13:08:39;;;;;;;3.13;1.63;;;;;;;;;;5092301;28;20016;-67
2021/09/25 13:11:10;;;;;;;2.47;1.30;;;;;;;;;;5096173;28;20027;-67
2021/09/25 13:13:36;;;;;;;3.58;1.70;;;;;;;;;;5094334;28;20018;-66
2021/09/25 13:16:09;;;;;;;4.35;1.42;;;;;;;;;;5093226;28;20099;-68
2021/09/25 13:18:34;;;;;;;3.03;1.63;;;;;;;;;;5078662;28;20384;-66
2021/09/25 13:20:59;;;;;;;5.80;1.93;;;;;;;;;;5093044;28;20020;-67
2021/09/25 13:23:28;;;;;;;4.93;1.53;;;;;;;;;;5092666;28;20149;-66
2021/09/25 13:25:53;;;;;;;3.15;1.60;;;;;;;;;;5092695;28;20019;-67
2021/09/25 13:28:18;;;;;;;4.05;1.70;;;;;;;;;;5093045;28;20380;-67
2021/09/25 13:30:43;;;;;;;3.10;1.77;;;;;;;;;;5093026;28;20023;-67
2021/09/25 13:33:08;;;;;;;6.82;1.67;;;;;;;;;;5092549;28;20587;-66
2021/09/25 13:35:34;;;;;;;2.97;1.75;;;;;;;;;;5092860;28;20149;-68
2021/09/25 13:37:59;;;;;;;6.23;1.97;;;;;;;;;;5092344;28;20020;-68
2021/09/25 13:40:24;;;;;;;3.40;2.20;;;;;;;;;;5092822;28;20254;-67
2021/09/25 13:42:49;;;;;;;3.15;1.65;;;;;;;;;;5092243;28;20077;-67
2021/09/25 13:45:17;;;;;;;2.58;1.52;;;;;;;;;;5092842;28;20016;-67
2021/09/25 13:47:43;;;;;;;4.30;2.08;;;;;;;;;;5091092;28;20052;-67
2021/09/25 13:50:08;;;;;;;4.07;1.75;;;;;;;;;;5092035;28;20051;-68
2021/09/25 13:52:33;;;;;;;3.05;1.88;;;;;;;;;;5092124;28;20016;-68
2021/09/25 13:54:59;;;;;;;4.83;3.17;;;;;;;;;;5092160;28;20441;-68
2021/09/25 13:57:24;;;;;;;4.15;2.60;;;;;;;;;;5092850;28;20793;-69
2021/09/25 13:59:50;;;;;;;3.37;1.73;;;;;;;;;;5092746;28;20016;-68
2021/09/25 14:02:15;;;;;;;1.88;1.50;;;;;;;;;;5092002;28;20020;-68
2021/09/25 14:04:40;;;;;;;3.80;1.58;;;;;;;;;;5091760;28;20020;-68
2021/09/25 14:07:06;;;;;;;3.30;1.90;;;;;;;;;;5091196;28;20541;-67
2021/09/25 14:09:34;;;;;;;6.18;2.83;;;;;;;;;;5092295;28;20262;-68
2021/09/25 14:12:03;;;;;;;5.25;2.45;;;;;;;;;;5091580;28;20020;-68
2021/09/25 14:14:28;;;;;;;14.48;6.28;;;;;;;;;;5092309;28;20047;-68
2021/09/25 14:16:54;;;;;;;2.65;1.70;;;;;;;;;;5092046;28;20052;-67
2021/09/25 14:19:19;;;;;;;4.85;1.95;;;;;;;;;;5091824;28;20027;-68
2021/09/25 14:21:44;;;;;;;4.97;1.95;;;;;;;;;;5091320;28;20027;-65
2021/09/25 14:24:09;;;;;;;24.10;11.65;;;;;;;;;;5091698;28;20027;-68
2021/09/25 14:26:36;;;;;;;3.50;2.17;;;;;;;;;;5090688;28;20047;-68
2021/09/25 14:29:08;;;;;;;3.38;2.05;;;;;;;;;;5091577;28;20254;-68
2021/09/25 14:31:34;;;;;;;3.00;1.63;;;;;;;;;;5092163;28;20027;-68
2021/09/25 14:33:59;;;;;;;3.15;1.83;;;;;;;;;;5091524;28;20035;-68
2021/09/25 14:36:25;;;;;;;2.95;1.80;;;;;;;;;;5091815;28;20016;-67
2021/09/25 14:38:50;;;;;;;2.70;1.87;;;;;;;;;;5091507;28;20109;-68
2021/09/25 14:41:15;;;;;;;8.63;4.22;;;;;;;;;;5091900;28;20254;-67